Terminal Aerodrome Forecast
Issued by NWS Amarillo, TX

Home | Current Version | Previous Version | Text Only | Print | Product List | Glossary On
Versions: 1 2 3 4 5 6 7 8 9 10 11 12 13 14 15 16 17
000
FTUS44 KAMA 171225 AAA
TAFAMA
TAF AMD
KAMA 171225Z 1712/1812 33013KT P6SM BKN100
     FM171400 32013KT P6SM BKN100
     FM180100 07005KT P6SM SCT150
     FM180900 21007KT P6SM BKN100=

USA.gov is the U.S. government's official web portal to all federal, state and local government web resources and services.